createdAt,value
2018-10-03T00:02:21.030Z,5.60
2018-10-03T00:04:49.518Z,5.70
2018-10-03T00:07:17.967Z,5.60
2018-10-03T00:09:46.434Z,5.70
2018-10-03T00:12:14.879Z,5.70
2018-10-03T00:14:43.326Z,5.70
2018-10-03T00:17:11.765Z,5.70
2018-10-03T00:19:40.223Z,5.80
2018-10-03T00:22:08.686Z,5.70
2018-10-03T00:24:37.128Z,5.80
2018-10-03T00:27:05.671Z,5.80
2018-10-03T00:29:34.112Z,5.80
2018-10-03T00:32:02.561Z,5.90
2018-10-03T00:34:31.025Z,6.00
2018-10-03T00:36:59.479Z,6.00
2018-10-03T00:39:27.951Z,6.00
2018-10-03T00:41:56.391Z,6.00
2018-10-03T00:44:24.839Z,6.00
2018-10-03T00:46:53.285Z,6.00
2018-10-03T00:49:30.138Z,6.00
2018-10-03T00:51:58.598Z,6.00
2018-10-03T00:54:27.051Z,5.90
2018-10-03T00:56:55.514Z,6.00
2018-10-03T00:59:23.962Z,5.90
2018-10-03T01:01:52.406Z,5.90
2018-10-03T01:04:20.854Z,5.90
2018-10-03T01:06:49.322Z,5.90
2018-10-03T01:09:17.778Z,5.90
2018-10-03T01:11:46.243Z,5.90
2018-10-03T01:14:14.690Z,5.80
2018-10-03T01:16:43.150Z,5.90
2018-10-03T01:19:11.645Z,5.80
2018-10-03T01:21:40.096Z,5.80
2018-10-03T01:24:08.555Z,5.80
2018-10-03T01:26:37.007Z,5.80
2018-10-03T01:29:05.580Z,5.90
2018-10-03T01:31:34.018Z,6.00
2018-10-03T01:34:02.466Z,6.00
2018-10-03T01:36:30.943Z,6.00
2018-10-03T01:38:59.387Z,5.90
2018-10-03T01:41:27.853Z,5.80
2018-10-03T01:43:56.303Z,5.80
2018-10-03T01:46:24.774Z,5.70
2018-10-03T01:48:53.220Z,5.70
2018-10-03T01:51:21.675Z,5.60
2018-10-03T01:53:50.119Z,5.50
2018-10-03T01:56:18.566Z,5.50
2018-10-03T01:58:47.102Z,5.40
2018-10-03T02:01:15.551Z,5.30
2018-10-03T02:03:43.999Z,5.30
2018-10-03T02:06:12.489Z,5.30
2018-10-03T02:08:40.938Z,5.30
2018-10-03T02:11:09.411Z,5.30
2018-10-03T02:13:37.870Z,5.30
2018-10-03T02:16:06.324Z,5.40
2018-10-03T02:18:34.779Z,5.40
2018-10-03T02:21:03.245Z,5.50
2018-10-03T02:23:31.757Z,5.50
2018-10-03T02:26:00.233Z,5.50
2018-10-03T02:28:28.696Z,5.50
2018-10-03T02:30:57.225Z,5.50
2018-10-03T02:33:25.830Z,5.50
2018-10-03T02:35:54.286Z,5.60
2018-10-03T02:38:22.746Z,5.60
2018-10-03T02:40:51.262Z,5.60
2018-10-03T02:43:19.719Z,5.70
2018-10-03T02:45:48.183Z,5.70
2018-10-03T02:48:16.622Z,5.70
2018-10-03T02:50:45.074Z,5.70
2018-10-03T02:53:13.526Z,5.80
2018-10-03T02:55:41.978Z,5.70
2018-10-03T02:58:10.419Z,5.80
2018-10-03T03:00:38.860Z,5.80
2018-10-03T03:03:07.350Z,5.80
2018-10-03T03:05:35.811Z,5.80
2018-10-03T03:08:04.271Z,5.70
2018-10-03T03:10:32.983Z,5.70
2018-10-03T03:13:01.455Z,5.70
2018-10-03T03:15:29.913Z,5.60
2018-10-03T03:17:58.402Z,5.60
2018-10-03T03:20:26.859Z,5.60
2018-10-03T03:22:55.306Z,5.50
2018-10-03T03:25:23.748Z,5.50
2018-10-03T03:27:52.194Z,5.50
2018-10-03T03:30:20.646Z,5.50
2018-10-03T03:32:49.091Z,5.50
2018-10-03T03:35:17.586Z,5.50
2018-10-03T03:37:46.030Z,5.50
2018-10-03T03:40:14.482Z,5.50
2018-10-03T03:42:42.934Z,5.50
2018-10-03T03:45:11.378Z,5.40
2018-10-03T03:47:39.834Z,5.30
2018-10-03T03:50:08.280Z,5.30
2018-10-03T03:52:36.722Z,5.20
2018-10-03T03:55:05.826Z,5.20
2018-10-03T03:57:34.293Z,5.10
2018-10-03T04:00:02.854Z,5.10
2018-10-03T04:02:31.384Z,5.10
2018-10-03T04:04:59.891Z,5.00
2018-10-03T04:07:28.374Z,5.00
2018-10-03T04:09:56.834Z,5.00
2018-10-03T04:12:25.286Z,4.90
2018-10-03T04:14:53.748Z,4.80
2018-10-03T04:17:22.195Z,4.80
2018-10-03T04:19:50.663Z,4.70
2018-10-03T04:22:19.110Z,4.70
2018-10-03T04:24:47.559Z,4.70
2018-10-03T04:27:16.015Z,4.70
2018-10-03T04:29:44.467Z,4.80
2018-10-03T04:32:12.911Z,4.70
2018-10-03T04:34:41.379Z,4.70
2018-10-03T04:37:09.819Z,4.70
2018-10-03T04:39:38.266Z,4.70
2018-10-03T04:42:06.831Z,4.60
2018-10-03T04:44:35.271Z,4.60
2018-10-03T04:49:57.346Z,4.50
2018-10-03T04:52:25.830Z,4.50
2018-10-03T04:54:54.314Z,4.40
2018-10-03T04:57:22.759Z,4.50
2018-10-03T04:59:51.202Z,4.50
2018-10-03T05:02:19.717Z,4.60
2018-10-03T05:04:48.167Z,4.60
2018-10-03T05:07:16.611Z,4.60
2018-10-03T05:09:45.059Z,4.60
2018-10-03T05:12:13.510Z,4.50
2018-10-03T05:14:41.955Z,4.50
2018-10-03T05:17:10.409Z,4.50
2018-10-03T05:19:38.867Z,4.50
2018-10-03T05:22:07.306Z,4.50
2018-10-03T05:24:35.755Z,4.50
2018-10-03T05:27:04.219Z,4.50
2018-10-03T05:29:32.710Z,4.50
2018-10-03T05:32:01.169Z,4.50
2018-10-03T05:34:29.659Z,4.60
2018-10-03T05:36:58.123Z,4.60
2018-10-03T05:39:26.576Z,4.60
2018-10-03T05:41:55.034Z,4.70
2018-10-03T05:44:23.474Z,4.80
2018-10-03T05:46:51.929Z,4.80
2018-10-03T05:49:20.396Z,4.90
2018-10-03T05:51:48.846Z,5.00
2018-10-03T05:54:17.339Z,5.10
2018-10-03T05:56:45.786Z,5.20
2018-10-03T05:59:14.238Z,5.20
2018-10-03T06:01:42.682Z,5.30
2018-10-03T06:04:11.132Z,5.40
2018-10-03T06:06:39.574Z,5.50
2018-10-03T06:09:10.206Z,5.60
2018-10-03T06:11:38.988Z,5.70
2018-10-03T06:14:07.442Z,5.80
2018-10-03T06:16:35.887Z,5.90
2018-10-03T06:19:04.375Z,6.00
2018-10-03T06:21:33.377Z,6.10
2018-10-03T06:24:01.884Z,6.20
2018-10-03T06:26:30.365Z,6.30
2018-10-03T06:28:58.847Z,6.50
2018-10-03T06:31:27.308Z,6.60
2018-10-03T06:33:55.763Z,6.70
2018-10-03T06:36:24.240Z,6.80
2018-10-03T06:38:52.739Z,7.00
2018-10-03T06:41:21.199Z,7.10
2018-10-03T06:43:49.683Z,7.20
2018-10-03T06:46:18.122Z,7.30
2018-10-03T06:48:46.571Z,7.40
2018-10-03T06:51:15.010Z,7.50
2018-10-03T06:53:43.462Z,7.60
2018-10-03T06:56:11.938Z,7.80
2018-10-03T06:58:40.394Z,7.80
2018-10-03T07:01:08.970Z,7.90
2018-10-03T07:03:37.454Z,8.00
2018-10-03T07:06:05.946Z,8.10
2018-10-03T07:08:34.403Z,8.20
2018-10-03T07:11:02.863Z,8.30
2018-10-03T07:13:31.321Z,8.40
2018-10-03T07:15:59.779Z,8.50
2018-10-03T07:18:28.234Z,8.70
2018-10-03T07:20:56.688Z,8.90
2018-10-03T07:23:25.119Z,9.00
2018-10-03T07:25:53.591Z,9.10
2018-10-03T07:28:22.038Z,9.20
2018-10-03T07:30:50.483Z,9.50
2018-10-03T07:33:18.934Z,9.50
2018-10-03T07:35:47.398Z,9.70
2018-10-03T07:38:15.868Z,9.80
2018-10-03T07:40:44.342Z,9.90
2018-10-03T07:43:12.807Z,10.00
2018-10-03T07:45:41.271Z,10.10
2018-10-03T07:48:09.815Z,10.10
2018-10-03T07:50:38.222Z,10.20
2018-10-03T07:53:06.843Z,10.30
2018-10-03T07:55:35.311Z,10.40
2018-10-03T07:58:03.803Z,10.40
2018-10-03T08:00:32.470Z,10.50
2018-10-03T08:03:00.931Z,10.50
2018-10-03T08:05:29.851Z,10.50
2018-10-03T08:07:58.926Z,10.50
2018-10-03T08:10:27.390Z,10.60
2018-10-03T08:12:55.851Z,10.60
2018-10-03T08:15:24.303Z,10.60
2018-10-03T08:17:52.763Z,10.70
2018-10-03T08:20:21.266Z,10.70
2018-10-03T08:22:49.734Z,10.90
2018-10-03T08:25:18.194Z,11.00
2018-10-03T08:27:46.655Z,11.00
2018-10-03T08:30:15.150Z,11.20
2018-10-03T08:32:43.683Z,11.20
2018-10-03T08:35:12.100Z,11.30
2018-10-03T08:37:40.556Z,11.30
2018-10-03T08:40:09.204Z,11.60
2018-10-03T08:42:37.767Z,11.70
2018-10-03T08:45:06.684Z,11.80
2018-10-03T08:47:35.238Z,11.80
2018-10-03T08:50:04.087Z,11.80
2018-10-03T08:52:32.583Z,11.70
2018-10-03T08:55:01.075Z,11.80
2018-10-03T08:57:29.523Z,11.60
2018-10-03T08:59:57.987Z,11.50
2018-10-03T09:02:26.427Z,11.60
2018-10-03T09:04:54.946Z,11.60
2018-10-03T09:07:23.499Z,11.50
2018-10-03T09:09:51.950Z,11.50
2018-10-03T09:12:20.406Z,11.60
2018-10-03T09:14:48.870Z,11.40
2018-10-03T09:17:17.338Z,11.60
2018-10-03T09:19:45.786Z,11.50
2018-10-03T09:22:14.238Z,11.70
2018-10-03T09:24:42.705Z,11.90
2018-10-03T09:27:11.169Z,11.90
2018-10-03T09:29:39.658Z,11.90
2018-10-03T09:32:08.187Z,12.20
2018-10-03T09:34:36.640Z,12.30
2018-10-03T09:37:05.139Z,12.50
2018-10-03T09:39:33.654Z,12.40
2018-10-03T09:42:02.063Z,12.40
2018-10-03T09:44:30.605Z,12.60
2018-10-03T09:46:59.022Z,12.80
2018-10-03T09:49:27.471Z,12.80
2018-10-03T09:51:55.933Z,13.10
2018-10-03T09:54:24.391Z,13.20
2018-10-03T09:56:52.839Z,13.40
2018-10-03T09:59:21.296Z,13.30
2018-10-03T10:01:49.751Z,13.50
2018-10-03T10:04:18.211Z,13.40
2018-10-03T10:06:46.662Z,13.30
2018-10-03T10:09:15.096Z,13.20
2018-10-03T10:11:43.666Z,13.10
2018-10-03T10:14:12.056Z,13.10
2018-10-03T10:16:40.512Z,13.20
2018-10-03T10:19:08.966Z,13.50
2018-10-03T10:21:37.430Z,13.60
2018-10-03T10:24:05.910Z,13.60
2018-10-03T10:26:34.359Z,13.80
2018-10-03T10:29:02.826Z,14.00
2018-10-03T10:31:31.342Z,14.20
2018-10-03T10:33:59.799Z,14.10
2018-10-03T10:36:28.258Z,14.00
2018-10-03T10:38:56.720Z,14.00
2018-10-03T10:41:25.331Z,13.90
2018-10-03T10:43:53.684Z,14.10
2018-10-03T10:46:22.151Z,14.20
2018-10-03T10:48:50.614Z,14.30
2018-10-03T10:51:19.063Z,14.40
2018-10-03T10:53:47.535Z,14.50
2018-10-03T10:56:16.002Z,14.70
2018-10-03T10:58:44.500Z,14.90
2018-10-03T11:01:12.983Z,15.10
2018-10-03T11:03:41.443Z,15.20
2018-10-03T11:06:09.938Z,15.30
2018-10-03T11:08:38.362Z,15.30
2018-10-03T11:11:06.851Z,15.60
2018-10-03T11:13:35.306Z,15.50
2018-10-03T11:16:03.796Z,15.60
2018-10-03T11:18:32.322Z,15.60
2018-10-03T11:21:00.779Z,15.80
2018-10-03T11:23:29.298Z,16.10
2018-10-03T11:25:58.049Z,16.10
2018-10-03T11:28:26.510Z,16.00
2018-10-03T11:30:54.966Z,16.00
2018-10-03T11:33:23.458Z,16.20
2018-10-03T11:35:51.931Z,16.20
2018-10-03T11:38:20.492Z,16.10
2018-10-03T11:40:48.867Z,16.10
2018-10-03T11:43:17.322Z,15.90
2018-10-03T11:45:45.794Z,15.90
2018-10-03T11:48:14.239Z,15.70
2018-10-03T11:50:42.781Z,15.60
2018-10-03T11:53:11.182Z,15.50
2018-10-03T11:55:39.640Z,15.50
2018-10-03T11:58:08.126Z,15.60
2018-10-03T12:00:36.603Z,15.60
2018-10-03T12:03:05.104Z,15.60
2018-10-03T12:05:33.590Z,15.60
2018-10-03T12:08:02.056Z,15.70
2018-10-03T12:10:30.520Z,15.60
2018-10-03T12:12:58.975Z,15.70
2018-10-03T12:15:27.430Z,16.00
2018-10-03T12:17:55.887Z,15.90
2018-10-03T12:20:24.410Z,15.90
2018-10-03T12:22:52.851Z,15.80
2018-10-03T12:25:21.378Z,15.80
2018-10-03T12:27:49.774Z,15.70
2018-10-03T12:30:18.223Z,15.80
2018-10-03T12:32:46.675Z,15.90
2018-10-03T12:35:19.356Z,15.90
2018-10-03T12:37:47.807Z,16.10
2018-10-03T12:40:16.275Z,16.30
2018-10-03T12:42:44.726Z,16.50
2018-10-03T12:45:13.261Z,16.70
2018-10-03T12:47:41.663Z,16.60
2018-10-03T12:50:10.182Z,16.80
2018-10-03T12:52:38.683Z,17.00
2018-10-03T12:55:07.358Z,16.90
2018-10-03T12:57:35.923Z,17.10
2018-10-03T13:00:04.834Z,17.00
2018-10-03T13:02:33.284Z,17.00
2018-10-03T13:05:01.895Z,17.00
2018-10-03T13:07:30.334Z,17.20
2018-10-03T13:09:58.794Z,17.20
2018-10-03T13:12:27.258Z,17.20
2018-10-03T13:14:55.714Z,17.20
2018-10-03T13:17:24.173Z,17.50
2018-10-03T13:19:59.075Z,17.50
2018-10-03T13:22:27.534Z,17.30
2018-10-03T13:24:55.982Z,17.40
2018-10-03T13:27:24.436Z,17.30
2018-10-03T13:29:52.899Z,17.30
2018-10-03T13:32:21.379Z,17.20
2018-10-03T13:34:49.862Z,17.20
2018-10-03T13:37:18.358Z,17.00
2018-10-03T13:39:46.801Z,17.10
2018-10-03T13:42:15.282Z,17.10
2018-10-03T13:44:43.747Z,17.00
2018-10-03T13:47:12.197Z,17.00
2018-10-03T13:49:40.680Z,17.00
2018-10-03T13:52:09.194Z,16.80
2018-10-03T13:54:37.670Z,16.70
2018-10-03T13:57:06.210Z,16.70
2018-10-03T13:59:34.659Z,16.70
2018-10-03T14:02:03.115Z,16.50
2018-10-03T14:04:31.633Z,16.40
2018-10-03T14:07:00.091Z,16.50
2018-10-03T14:09:28.577Z,16.50
2018-10-03T14:11:57.034Z,16.60
2018-10-03T14:14:25.489Z,16.50
2018-10-03T14:16:53.946Z,16.40
2018-10-03T14:19:22.388Z,16.40
2018-10-03T14:21:50.846Z,16.30
2018-10-03T14:24:19.325Z,16.30
2018-10-03T14:26:47.770Z,16.40
2018-10-03T14:29:16.227Z,16.40
2018-10-03T14:31:44.689Z,16.50
2018-10-03T14:34:13.149Z,16.50
2018-10-03T14:36:41.623Z,16.30
2018-10-03T14:39:10.401Z,16.30
2018-10-03T14:41:38.851Z,16.30
2018-10-03T14:44:07.342Z,16.40
2018-10-03T14:46:35.901Z,16.40
2018-10-03T14:49:04.350Z,16.50
2018-10-03T14:51:32.875Z,16.50
2018-10-03T14:54:01.339Z,16.50
2018-10-03T14:56:29.815Z,16.40
2018-10-03T14:58:58.275Z,16.40
2018-10-03T15:01:26.728Z,16.30
2018-10-03T15:03:55.179Z,16.20
2018-10-03T15:06:23.664Z,16.20
2018-10-03T15:08:52.118Z,16.10
2018-10-03T15:11:20.570Z,16.10
2018-10-03T15:13:49.020Z,16.00
2018-10-03T15:16:17.492Z,16.00
2018-10-03T15:18:45.963Z,15.80
2018-10-03T15:21:14.431Z,15.70
2018-10-03T15:23:42.888Z,15.70
2018-10-03T15:26:11.345Z,15.70
2018-10-03T15:28:39.811Z,15.50
2018-10-03T15:31:08.294Z,15.40
2018-10-03T15:33:36.743Z,15.30
2018-10-03T15:36:05.214Z,15.30
2018-10-03T15:38:33.668Z,15.20
2018-10-03T15:41:02.129Z,15.10
2018-10-03T15:43:30.634Z,15.10
2018-10-03T15:45:59.122Z,15.00
2018-10-03T15:48:27.583Z,14.90
2018-10-03T15:50:56.054Z,14.90
2018-10-03T15:53:24.727Z,14.80
2018-10-03T15:55:53.187Z,14.70
2018-10-03T15:58:21.679Z,14.60
2018-10-03T16:00:50.160Z,14.40
2018-10-03T16:03:18.610Z,14.20
2018-10-03T16:05:47.070Z,14.10
2018-10-03T16:08:15.615Z,14.00
2018-10-03T16:10:44.110Z,13.80
2018-10-03T16:13:12.583Z,13.80
2018-10-03T16:15:41.054Z,13.70
2018-10-03T16:18:09.535Z,13.70
2018-10-03T16:20:38.007Z,13.60
2018-10-03T16:23:06.718Z,13.60
2018-10-03T16:25:35.191Z,13.50
2018-10-03T16:28:03.670Z,13.50
2018-10-03T16:30:32.134Z,13.40
2018-10-03T16:33:00.610Z,13.40
2018-10-03T16:35:29.087Z,13.40
2018-10-03T16:37:57.551Z,13.30
2018-10-03T16:40:26.107Z,13.20
2018-10-03T16:42:54.566Z,13.10
2018-10-03T16:45:23.059Z,13.00
2018-10-03T16:47:51.822Z,12.80
2018-10-03T16:50:20.298Z,12.70
2018-10-03T16:52:48.758Z,12.60
2018-10-03T16:55:17.271Z,12.50
2018-10-03T16:57:45.735Z,12.40
2018-10-03T17:00:14.342Z,12.40
2018-10-03T17:02:43.413Z,12.30
2018-10-03T17:05:11.998Z,12.20
2018-10-03T17:07:40.915Z,12.20
2018-10-03T17:10:09.533Z,12.20
2018-10-03T17:12:38.014Z,12.20
2018-10-03T17:15:06.495Z,12.20
2018-10-03T17:17:35.798Z,12.10
2018-10-03T17:20:04.463Z,12.10
2018-10-03T17:22:32.982Z,12.00
2018-10-03T17:25:01.454Z,11.90
2018-10-03T17:27:30.020Z,11.80
2018-10-03T17:29:58.451Z,11.70
2018-10-03T17:32:26.915Z,11.70
2018-10-03T17:34:55.383Z,11.70
2018-10-03T17:37:23.875Z,11.60
2018-10-03T17:39:52.366Z,11.50
2018-10-03T17:42:20.835Z,11.40
2018-10-03T17:44:49.387Z,11.30
2018-10-03T17:47:17.926Z,11.20
2018-10-03T17:49:46.382Z,11.00
2018-10-03T17:52:14.851Z,10.80
2018-10-03T17:54:43.330Z,10.70
2018-10-03T17:57:11.781Z,10.70
2018-10-03T17:59:40.239Z,10.60
2018-10-03T18:02:11.134Z,10.60
2018-10-03T18:04:39.601Z,10.50
2018-10-03T18:07:08.070Z,10.50
2018-10-03T18:09:36.538Z,10.50
2018-10-03T18:12:05.132Z,10.50
2018-10-03T18:14:33.614Z,10.50
2018-10-03T18:17:02.106Z,10.50
2018-10-03T18:19:30.655Z,10.40
2018-10-03T18:21:59.179Z,10.40
2018-10-03T18:24:27.720Z,10.40
2018-10-03T18:26:56.195Z,10.40
2018-10-03T18:29:24.710Z,10.40
2018-10-03T18:31:53.183Z,10.40
2018-10-03T18:34:21.650Z,10.40
2018-10-03T18:36:50.119Z,10.30
2018-10-03T18:39:18.623Z,10.10
2018-10-03T18:41:47.121Z,9.90
2018-10-03T18:44:15.603Z,9.90
2018-10-03T18:46:44.093Z,9.80
2018-10-03T18:49:12.555Z,9.70
2018-10-03T18:51:41.261Z,9.70
2018-10-03T18:54:09.856Z,9.60
2018-10-03T18:56:38.484Z,9.60
2018-10-03T18:59:07.238Z,9.60
2018-10-03T19:01:35.730Z,9.50
2018-10-03T19:04:04.304Z,9.40
2018-10-03T19:06:33.155Z,9.30
2018-10-03T19:09:01.663Z,9.40
2018-10-03T19:11:30.318Z,9.40
2018-10-03T19:13:58.916Z,9.30
2018-10-03T19:16:27.934Z,9.30
2018-10-03T19:18:56.414Z,9.30
2018-10-03T19:21:24.992Z,9.20
2018-10-03T19:23:53.442Z,9.30
2018-10-03T19:26:22.132Z,9.30
2018-10-03T19:28:50.496Z,9.40
2018-10-03T19:31:18.962Z,9.40
2018-10-03T19:33:47.419Z,9.20
2018-10-03T19:36:16.314Z,9.20
2018-10-03T19:38:44.755Z,9.10
2018-10-03T19:41:13.225Z,9.00
2018-10-03T19:43:41.672Z,8.90
2018-10-03T19:46:10.137Z,8.80
2018-10-03T19:48:38.593Z,8.70
2018-10-03T19:51:07.095Z,8.80
2018-10-03T19:53:36.703Z,8.80
2018-10-03T19:56:05.229Z,8.80
2018-10-03T19:58:33.699Z,8.90
2018-10-03T20:01:02.154Z,9.00
2018-10-03T20:03:30.856Z,8.90
2018-10-03T20:05:59.352Z,8.80
2018-10-03T20:08:27.835Z,8.80
2018-10-03T20:10:56.335Z,8.80
2018-10-03T20:13:24.874Z,8.70
2018-10-03T20:15:53.329Z,8.70
2018-10-03T20:18:22.338Z,8.60
2018-10-03T20:20:51.254Z,8.60
2018-10-03T20:23:19.862Z,8.50
2018-10-03T20:25:48.337Z,8.60
2018-10-03T20:28:17.092Z,8.50
2018-10-03T20:30:45.550Z,8.40
2018-10-03T20:33:14.003Z,8.40
2018-10-03T20:35:42.462Z,8.30
2018-10-03T20:38:10.922Z,8.30
2018-10-03T20:40:39.403Z,8.30
2018-10-03T20:43:07.886Z,8.40
2018-10-03T20:45:36.397Z,8.30
2018-10-03T20:48:05.791Z,8.20
2018-10-03T20:50:34.378Z,8.20
2018-10-03T20:53:02.847Z,8.20
2018-10-03T20:55:31.471Z,8.20
2018-10-03T20:57:59.934Z,8.20
2018-10-03T21:00:28.391Z,8.20
2018-10-03T21:02:56.830Z,8.20
2018-10-03T21:05:25.287Z,8.40
2018-10-03T21:07:53.734Z,8.40
2018-10-03T21:10:22.218Z,8.40
2018-10-03T21:12:50.671Z,8.30
2018-10-03T21:15:19.116Z,8.30
2018-10-03T21:17:47.597Z,8.30
2018-10-03T21:20:16.062Z,8.30
2018-10-03T21:22:44.526Z,8.30
2018-10-03T21:25:12.987Z,8.20
2018-10-03T21:27:41.434Z,8.20
2018-10-03T21:30:09.914Z,8.20
2018-10-03T21:32:38.617Z,8.10
2018-10-03T21:35:07.039Z,8.00
2018-10-03T21:37:35.594Z,8.00
2018-10-03T21:40:04.158Z,8.10
2018-10-03T21:42:32.949Z,8.00
2018-10-03T21:45:01.400Z,8.00
2018-10-03T21:47:29.877Z,8.00
2018-10-03T21:49:58.331Z,8.00
2018-10-03T21:52:26.774Z,8.00
2018-10-03T21:54:55.250Z,8.10
2018-10-03T21:57:23.712Z,8.00
2018-10-03T21:59:52.165Z,8.00
2018-10-03T22:02:20.614Z,8.00
2018-10-03T22:04:49.082Z,8.00
2018-10-03T22:07:17.538Z,8.00
2018-10-03T22:09:45.992Z,8.10
2018-10-03T22:12:14.449Z,8.00
2018-10-03T22:14:42.914Z,8.10
2018-10-03T22:17:15.582Z,8.20
2018-10-03T22:19:44.080Z,8.20
2018-10-03T22:22:12.567Z,8.40
2018-10-03T22:24:41.024Z,8.50
2018-10-03T22:27:09.486Z,8.40
2018-10-03T22:29:38.283Z,8.30
2018-10-03T22:32:07.131Z,8.20
2018-10-03T22:34:35.623Z,8.10
2018-10-03T22:37:04.078Z,8.10
2018-10-03T22:39:32.574Z,7.90
2018-10-03T22:42:01.014Z,7.80
2018-10-03T22:44:29.465Z,7.80
2018-10-03T22:46:57.911Z,7.70
2018-10-03T22:49:26.370Z,7.70
2018-10-03T22:51:54.906Z,7.70
2018-10-03T22:54:23.366Z,7.80
2018-10-03T22:56:51.886Z,7.80
2018-10-03T22:59:20.336Z,7.70
2018-10-03T23:01:48.830Z,7.70
2018-10-03T23:04:17.286Z,7.70
2018-10-03T23:06:46.019Z,7.70
2018-10-03T23:09:14.509Z,7.60
2018-10-03T23:11:42.943Z,7.60
2018-10-03T23:14:11.394Z,7.50
2018-10-03T23:16:39.879Z,7.50
2018-10-03T23:19:08.327Z,7.50
2018-10-03T23:21:36.774Z,7.50
2018-10-03T23:24:05.243Z,7.40
2018-10-03T23:26:36.638Z,7.40
2018-10-03T23:29:05.134Z,7.40
2018-10-03T23:31:33.774Z,7.30
2018-10-03T23:34:02.218Z,7.30
2018-10-03T23:36:30.726Z,7.20
2018-10-03T23:38:59.182Z,7.20
2018-10-03T23:41:27.628Z,7.20
2018-10-03T23:43:56.091Z,7.20
2018-10-03T23:46:24.545Z,7.30
2018-10-03T23:48:53.010Z,7.40
2018-10-03T23:51:21.466Z,7.30
2018-10-03T23:53:49.944Z,7.20
2018-10-03T23:56:18.394Z,7.20
2018-10-03T23:58:46.874Z,7.40
